< < Back
Terminal Aerodrome Forecast


Current Version              Previous Versions:   1  2  3  4  5  6  7  8  9  

Terminal Aerodrome Forecast

080
FTUS44 KOHX 060744 AAA
TAFBNA
TAF AMD
KBNA 060744Z 0608/0706 00000KT 6SM BR FEW050
      TEMPO 0610/0613 2SM BR BKN003
     FM061400 23004KT P6SM SCT150=



Latest METAR

975
SAUS70 KWBC 061800 RRH
MTRBNA
METAR KBNA 061753Z COR 23007G16KT 10SM SCT030 28/22 A3014 RMK AO2 SLP199
T02830222 10289 20217 50002


USA.gov is the U.S. government's official web portal to all federal, state and local government web resources and services.